Current Weather

Ambodedjo

Ambodedjo, Mali (GAMB)

Report from: Monday, February 6, 2023 3:00 AM GMT
Current time: Monday, February 6, 2023 5:32 AM GMT

Nearby weather
Weather history
Weather forecast

Temperature22.0°C (71.6°F)
Dew point10.0°C (50.0°F)
Winds 6 kts (3.1 m/s, 6.9 mph) North (360°)
Clouds Sky clear
Altimeter29.88 in.Hg (1012 mB)
Relative humidity46 %
Density altitude1,033 ft. (315 m)
Remarks Ceiling and visibility OK
Flight conditions Visual Meteorological Conditions
Raw dataGAMB 060300Z 36006KT CAVOK 22/10 Q1012
An error has occurred. This application may no longer respond until reloaded. Reload 🗙